x

Sacrifice Island, Mexico (sacv4) Weather Station

3:00pm - Wed 30th Jul 2014 All times are CDT. -5 hours from GMT.

  • Wind
    2mph, 5mph gusts
  • Air Temp 87°f
  • Sea Pressure 1014.6mb
  • Sacrifice Island, Mexico
  • Sacrifice Island, Mexico

More Historic Weather Station data

Upgrade to MSW Pro to gain access to the past 30 days of data for over 8000 Wavebouys and Weather Stations around the globe.

Join Pro

Comparision Forecast

View Surf forecast
   
Wed 07/30 3:00pm 2 5 mph 1014.6mb 87f
2:00pm 2 3 mph 1015.5mb 86f
1:00pm 2 7 mph 1016.2mb 84f
12:00pm 2 5 mph 1016.9mb 84f
11:00am 2
mph
1017.3mb 83f
10:00am 6 7 mph 1017.3mb 80f
9:00am 5 6 mph 1017mb 82f
8:00am 3 5 mph 1016.8mb 80f
7:00am 10 13 mph 1016.7mb 80f
6:00am 11 15 mph 1016.4mb 78f
5:00am 8 10 mph 1015.9mb 81f
4:00am 6
mph
1016.5mb 82f
3:00am 7
mph
1017mb 82f
2:00am 11 13 mph 1017.3mb 81f
1:00am  -  3 mph 1017.8mb 84f
12:00am 1 3 mph 1018mb 84f
Tue 07/29 11:00pm 2 5 mph 1017.7mb 84f
10:00pm 2 7 mph 1016.5mb 84f
9:00pm 3 9 mph 1016.2mb 84f
8:00pm 5 8 mph 1015.7mb 84f
7:00pm 3 6 mph 1015.2mb 85f
6:00pm 2 6 mph 1015.4mb 86f
5:00pm 5 8 mph 1015.5mb 86f
4:00pm 6 10 mph 1015.7mb 85f
3:00pm 3 6 mph 1016mb 84f
2:00pm 2 6 mph 1016.1mb 84f
1:00pm 7 9 mph 1017mb 83f
12:00pm 2 6 mph 1017.4mb 83f
11:00am 2 3 mph 1017.6mb 82f
10:00am 7 8 mph 1017.8mb 80f
9:00am 7 9 mph 1017.6mb 77f
8:00am 7
mph
1017.7mb 78f
7:00am 9 13 mph 1017.8mb 78f
6:00am 6
mph
1017.2mb 79f
5:00am 5 6 mph 1016.9mb 78f
4:00am 2 3 mph 1016.9mb 78f
3:00am 7 8 mph 1016.8mb 78f
2:00am 7 8 mph 1017.7mb 78f
1:00am 7
mph
1018mb 80f
12:00am 1 2 mph 1018.4mb 81f
Mon 07/28 11:00pm 2
mph
1018.1mb 81f
10:00pm 8 9 mph 1017.6mb 81f
9:00pm 9 10 mph 1017mb 82f
8:00pm 6 7 mph 1017.1mb 83f
7:00pm 7 8 mph 1016.9mb 83f
6:00pm 2 5 mph 1017mb 83f
5:00pm 5 8 mph 1017.1mb 84f
4:00pm 3 7 mph 1017.3mb 82f
3:00pm 2 7 mph 1016.9mb 84f
2:00pm 5 9 mph 1017.7mb 85f
1:00pm 6 8 mph 1018.1mb 84f
12:00pm 6 7 mph 1018.8mb 83f
11:00am 6
mph
1018.5mb 83f
10:00am 7 8 mph 1018.3mb 82f
9:00am 7 8 mph 1018.2mb 82f
8:00am 9 10 mph 1017.1mb 81f
7:00am 2
mph
1016.9mb 82f
6:00am 2
mph
1016.2mb 83f
5:00am  -  mph 1016mb 82f
4:00am  -  mph 1016.4mb 82f
3:00am  -  1 mph 1016.4mb 83f
2:00am 6 7 mph 1016.5mb 83f
1:00am 5 7 mph 1017.3mb 83f
12:00am 1 3 mph 1018.2mb 83f
Sun 07/27 11:00pm  -  2 mph 1017.6mb 84f
10:00pm  -  3 mph 1017mb 84f
9:00pm 1 3 mph 1016.1mb 84f
8:00pm 2 5 mph 1015.5mb 84f
7:00pm 2 5 mph 1015.1mb 86f
6:00pm 1 6 mph 1014.6mb 86f
5:00pm 2 6 mph 1015.1mb 86f
4:00pm 5 9 mph 1015.3mb 86f
3:00pm 5 8 mph 1016.3mb 85f
2:00pm 6 7 mph 1016.7mb 85f
1:00pm 2 3 mph 1017.3mb 85f
12:00pm 6 7 mph 1017.6mb 84f
11:00am 6
mph
1017.3mb 83f
10:00am 2 3 mph 1017.6mb 82f
9:00am 10 11 mph 1016.6mb 80f
8:00am 22 25 mph 1016.6mb 76f
7:00am 7
mph
1015.9mb 81f
6:00am 6
mph
1015.7mb 83f
5:00am 2 3 mph 1015.3mb 83f
4:00am 1 5 mph 1015.9mb 83f
3:00am 2
mph
1015.6mb 83f
2:00am  -  2 mph 1016.8mb 83f
1:00am 5 8 mph 1017.4mb 84f
12:00am  -  3 mph 1017.6mb 84f
Sat 07/26 11:00pm  -  2 mph 1016.8mb 84f
10:00pm 1 3 mph 1015.8mb 84f